createdAt,value
2023-05-02T00:00:29.214Z,101119.97
2023-05-02T00:02:55.871Z,101114.72
2023-05-02T00:05:22.476Z,101119.16
2023-05-02T00:07:48.787Z,101120.03
2023-05-02T00:10:15.244Z,101117.53
2023-05-02T00:12:41.571Z,101120.84
2023-05-02T00:15:08.683Z,101126.97
2023-05-02T00:17:35.340Z,101132.25
2023-05-02T00:20:01.916Z,101119.97
2023-05-02T00:22:28.708Z,101124.28
2023-05-02T00:24:58.390Z,101120.84
2023-05-02T00:27:25.164Z,101128.69
2023-05-02T00:29:52.238Z,101131.31
2023-05-02T00:32:18.881Z,101127.06
2023-05-02T00:34:45.354Z,101132.22
2023-05-02T00:37:11.710Z,101141.81
2023-05-02T00:39:38.162Z,101140.13
2023-05-02T00:42:04.791Z,101138.34
2023-05-02T00:44:31.542Z,101136.53
2023-05-02T00:46:58.616Z,101138.25
2023-05-02T00:49:25.037Z,101137.28
2023-05-02T00:51:51.480Z,101140.94
2023-05-02T00:54:18.402Z,101145.34
2023-05-02T00:56:45.542Z,101140.03
2023-05-02T00:59:12.816Z,101138.28
2023-05-02T01:04:29.059Z,101138.41
2023-05-02T01:07:51.561Z,101147.91
2023-05-02T01:10:31.920Z,101138.41
2023-05-02T01:13:10.379Z,101149.56
2023-05-02T01:15:38.927Z,101141.75
2023-05-02T01:18:08.506Z,101147.03
2023-05-02T01:20:41.683Z,101145.03
2023-05-02T01:23:32.818Z,101149.34
2023-05-02T01:26:26.925Z,101148.63
2023-05-02T01:28:58.480Z,101159.00
2023-05-02T01:31:27.665Z,101153.94
2023-05-02T01:33:56.010Z,101154.06
2023-05-02T01:36:25.349Z,101163.56
2023-05-02T01:38:52.792Z,101160.03
2023-05-02T01:41:20.800Z,101166.94
2023-05-02T01:43:48.124Z,101169.50
2023-05-02T01:46:15.548Z,101173.13
2023-05-02T01:48:46.495Z,101171.38
2023-05-02T01:51:14.931Z,101180.09
2023-05-02T01:53:43.389Z,101181.13
2023-05-02T01:56:10.019Z,101184.53
2023-05-02T01:58:38.844Z,101198.44
2023-05-02T02:01:06.193Z,101200.06
2023-05-02T02:03:32.624Z,101206.34
2023-05-02T02:06:00.985Z,101202.00
2023-05-02T02:08:27.335Z,101209.00
2023-05-02T02:11:04.314Z,101210.69
2023-05-02T02:13:35.930Z,101214.16
2023-05-02T02:16:05.812Z,101215.91
2023-05-02T02:18:37.212Z,101224.63
2023-05-02T02:21:07.732Z,101218.72
2023-05-02T02:23:36.625Z,101216.09
2023-05-02T02:26:04.818Z,101225.69
2023-05-02T02:28:31.912Z,101229.00
2023-05-02T02:30:58.303Z,101228.19
2023-05-02T02:33:29.681Z,101229.94
2023-05-02T02:36:08.418Z,101230.78
2023-05-02T02:38:45.161Z,101240.22
2023-05-02T02:41:18.890Z,101241.16
2023-05-02T02:44:01.516Z,101242.00
2023-05-02T02:46:53.433Z,101259.47
2023-05-02T02:49:31.787Z,101256.84
2023-05-02T02:52:12.140Z,101263.00
2023-05-02T02:54:53.724Z,101276.03
2023-05-02T02:57:47.815Z,101284.75
2023-05-02T03:00:20.326Z,101290.88
2023-05-02T03:02:47.949Z,101293.59
2023-05-02T03:05:15.553Z,101303.19
2023-05-02T03:07:42.112Z,101314.44
2023-05-02T03:10:09.112Z,101316.16
2023-05-02T03:12:35.434Z,101330.88
2023-05-02T03:15:29.778Z,101327.41
2023-05-02T03:17:56.201Z,101339.50
2023-05-02T03:20:22.521Z,101329.09
2023-05-02T03:22:48.820Z,101320.34
2023-05-02T03:25:15.628Z,101329.03
2023-05-02T03:27:41.932Z,101331.59
2023-05-02T03:30:08.816Z,101329.88
2023-05-02T03:32:35.140Z,101335.97
2023-05-02T03:35:01.779Z,101335.88
2023-05-02T03:37:28.193Z,101346.19
2023-05-02T03:39:54.560Z,101357.44
2023-05-02T03:42:21.573Z,101363.41
2023-05-02T03:44:47.901Z,101362.56
2023-05-02T03:47:14.615Z,101355.63
2023-05-02T03:49:41.080Z,101355.59
2023-05-02T03:52:07.518Z,101352.06
2023-05-02T03:54:33.943Z,101357.34
2023-05-02T03:57:00.720Z,101359.09
2023-05-02T03:59:27.316Z,101362.53
2023-05-02T04:01:53.672Z,101353.91
2023-05-02T04:04:20.096Z,101359.09
2023-05-02T04:06:46.804Z,101368.59
2023-05-02T04:09:13.239Z,101373.75
2023-05-02T04:11:39.532Z,101372.00
2023-05-02T04:14:05.848Z,101384.16
2023-05-02T04:16:32.197Z,101388.34
2023-05-02T04:18:59.169Z,101396.16
2023-05-02T04:21:25.649Z,101395.25
2023-05-02T04:23:52.711Z,101400.56
2023-05-02T04:26:18.980Z,101403.94
2023-05-02T04:28:45.296Z,101405.75
2023-05-02T04:31:11.663Z,101415.97
2023-05-02T04:33:38.139Z,101415.00
2023-05-02T04:36:04.824Z,101422.81
2023-05-02T04:38:31.174Z,101423.63
2023-05-02T04:40:57.518Z,101434.06
2023-05-02T04:43:24.712Z,101428.09
2023-05-02T04:45:51.404Z,101425.44
2023-05-02T04:48:17.744Z,101437.56
2023-05-02T04:50:45.913Z,101434.94
2023-05-02T04:53:12.248Z,101447.94
2023-05-02T04:55:38.576Z,101454.00
2023-05-02T04:58:04.898Z,101450.59
2023-05-02T05:00:31.373Z,101465.28
2023-05-02T05:02:59.281Z,101468.78
2023-05-02T05:05:27.269Z,101469.56
2023-05-02T05:07:53.655Z,101473.97
2023-05-02T05:10:20.063Z,101471.50
2023-05-02T05:12:46.596Z,101467.25
2023-05-02T05:15:12.879Z,101475.06
2023-05-02T05:17:39.169Z,101474.16
2023-05-02T05:22:38.601Z,101485.38
2023-05-02T05:25:05.218Z,101490.47
2023-05-02T05:27:31.627Z,101495.63
2023-05-02T05:29:58.056Z,101499.47
2023-05-02T05:32:25.804Z,101508.13
2023-05-02T05:34:53.577Z,101500.19
2023-05-02T05:37:21.332Z,101501.91
2023-05-02T05:39:48.037Z,101504.47
2023-05-02T05:42:14.545Z,101513.97
2023-05-02T05:44:40.791Z,101515.66
2023-05-02T05:47:07.321Z,101520.13
2023-05-02T05:49:38.362Z,101524.41
2023-05-02T05:52:05.006Z,101529.75
2023-05-02T05:54:31.278Z,101539.94
2023-05-02T05:56:57.599Z,101526.00
2023-05-02T05:59:23.918Z,101538.00
2023-05-02T06:01:50.633Z,101542.38
2023-05-02T06:04:16.918Z,101545.19
2023-05-02T06:06:43.338Z,101544.19
2023-05-02T06:09:09.618Z,101547.72
2023-05-02T06:11:37.634Z,101551.19
2023-05-02T06:14:03.983Z,101554.72
2023-05-02T06:16:30.518Z,101560.00
2023-05-02T06:18:56.890Z,101559.25
2023-05-02T06:21:23.144Z,101556.59
2023-05-02T06:23:49.531Z,101564.41
2023-05-02T06:26:16.320Z,101575.91
2023-05-02T06:28:42.613Z,101568.75
2023-05-02T06:31:08.955Z,101574.72
2023-05-02T06:33:36.552Z,101584.03
2023-05-02T06:36:03.324Z,101580.66
2023-05-02T06:38:30.022Z,101590.28
2023-05-02T06:40:56.520Z,101588.63
2023-05-02T06:43:22.856Z,101596.28
2023-05-02T06:45:49.178Z,101605.66
2023-05-02T06:48:15.715Z,101610.91
2023-05-02T06:50:42.251Z,101604.94
2023-05-02T06:53:08.597Z,101618.78
2023-05-02T06:55:34.962Z,101622.13
2023-05-02T06:58:01.442Z,101629.91
2023-05-02T07:00:27.741Z,101632.69
2023-05-02T07:02:54.449Z,101631.97
2023-05-02T07:05:20.962Z,101636.25
2023-05-02T07:07:47.243Z,101624.19
2023-05-02T07:10:13.715Z,101637.34
2023-05-02T07:12:40.042Z,101637.97
2023-05-02T07:15:08.061Z,101641.63
2023-05-02T07:17:34.731Z,101651.06
2023-05-02T07:20:01.369Z,101644.72
2023-05-02T07:22:27.908Z,101653.47
2023-05-02T07:24:59.274Z,101657.16
2023-05-02T07:27:25.672Z,101663.09
2023-05-02T07:29:51.996Z,101671.63
2023-05-02T07:32:18.452Z,101665.72
2023-05-02T07:34:45.093Z,101661.59
2023-05-02T07:37:11.942Z,101668.47
2023-05-02T07:39:38.220Z,101665.97
2023-05-02T07:42:04.558Z,101670.22
2023-05-02T07:44:33.103Z,101676.56
2023-05-02T07:46:59.839Z,101682.75
2023-05-02T07:49:26.220Z,101675.88
2023-05-02T07:51:52.490Z,101684.63
2023-05-02T07:54:20.186Z,101683.63
2023-05-02T07:56:47.219Z,101689.63
2023-05-02T07:59:13.677Z,101691.28
2023-05-02T08:01:41.543Z,101699.16
2023-05-02T08:04:10.380Z,101696.25
2023-05-02T08:06:37.535Z,101702.44
2023-05-02T08:09:04.014Z,101698.38
2023-05-02T08:11:30.369Z,101710.50
2023-05-02T08:13:56.669Z,101709.56
2023-05-02T08:16:22.994Z,101727.09
2023-05-02T08:18:49.461Z,101721.88
2023-05-02T08:21:15.733Z,101727.91
2023-05-02T08:23:42.179Z,101720.34
2023-05-02T08:26:08.553Z,101735.06
2023-05-02T08:28:34.893Z,101742.97
2023-05-02T08:31:01.206Z,101742.84
2023-05-02T08:33:27.494Z,101734.19
2023-05-02T08:35:54.028Z,101734.19
2023-05-02T08:38:20.411Z,101743.84
2023-05-02T08:40:46.737Z,101736.22
2023-05-02T08:43:13.397Z,101742.34
2023-05-02T08:45:42.542Z,101749.41
2023-05-02T08:48:14.803Z,101748.44
2023-05-02T08:50:45.245Z,101758.78
2023-05-02T08:53:13.506Z,101758.63
2023-05-02T08:55:41.556Z,101762.03
2023-05-02T08:58:11.502Z,101755.31
2023-05-02T09:00:42.172Z,101756.38
2023-05-02T09:03:23.572Z,101763.44
2023-05-02T09:05:55.045Z,101771.28
2023-05-02T09:08:23.139Z,101761.81
2023-05-02T09:10:49.537Z,101773.03
2023-05-02T09:13:29.329Z,101776.56
2023-05-02T09:16:00.637Z,101776.66
2023-05-02T09:18:30.046Z,101785.38
2023-05-02T09:20:58.514Z,101781.84
2023-05-02T09:23:41.769Z,101795.53
2023-05-02T09:26:21.996Z,101782.69
2023-05-02T09:28:54.784Z,101790.56
2023-05-02T09:31:49.703Z,101795.75
2023-05-02T09:34:17.502Z,101803.47
2023-05-02T09:36:51.235Z,101803.50
2023-05-02T09:39:21.474Z,101805.34
2023-05-02T09:41:49.549Z,101797.53
2023-05-02T09:44:18.404Z,101801.06
2023-05-02T09:46:46.813Z,101797.59
2023-05-02T09:49:14.757Z,101804.44
2023-05-02T09:51:43.760Z,101809.59
2023-05-02T09:54:10.330Z,101805.31
2023-05-02T09:56:53.871Z,101812.28
2023-05-02T09:59:20.607Z,101811.41
2023-05-02T10:01:55.278Z,101820.06
2023-05-02T10:04:21.899Z,101818.38
2023-05-02T10:06:51.939Z,101816.69
2023-05-02T10:09:21.518Z,101815.84
2023-05-02T10:11:52.811Z,101820.22
2023-05-02T10:14:21.547Z,101819.34
2023-05-02T10:17:12.373Z,101832.38
2023-05-02T10:19:45.963Z,101837.50
2023-05-02T10:22:13.148Z,101830.63
2023-05-02T10:24:41.238Z,101840.13
2023-05-02T10:27:08.205Z,101834.00
2023-05-02T10:29:35.954Z,101833.22
2023-05-02T10:32:04.302Z,101821.94
2023-05-02T10:34:33.869Z,101827.19
2023-05-02T10:37:03.040Z,101819.28
2023-05-02T10:39:30.134Z,101827.16
2023-05-02T10:41:58.985Z,101835.84
2023-05-02T10:44:39.796Z,101829.75
2023-05-02T10:47:22.056Z,101832.34
2023-05-02T10:49:54.158Z,101836.66
2023-05-02T10:52:29.088Z,101841.94
2023-05-02T10:55:15.649Z,101859.31
2023-05-02T10:57:57.139Z,101855.81
2023-05-02T11:00:27.887Z,101860.16
2023-05-02T11:02:54.305Z,101860.13
2023-05-02T11:05:22.445Z,101863.66
2023-05-02T11:07:48.770Z,101868.84
2023-05-02T11:10:18.122Z,101868.84
2023-05-02T11:12:48.951Z,101859.28
2023-05-02T11:15:41.490Z,101873.22
2023-05-02T11:18:12.538Z,101869.69
2023-05-02T11:20:40.641Z,101861.91
2023-05-02T11:23:16.154Z,101867.97
2023-05-02T11:25:45.038Z,101869.72
2023-05-02T11:28:37.741Z,101860.19
2023-05-02T11:31:08.591Z,101870.66
2023-05-02T11:33:34.962Z,101861.06
2023-05-02T11:36:01.837Z,101863.66
2023-05-02T11:38:36.626Z,101867.13
2023-05-02T11:41:04.135Z,101875.84
2023-05-02T11:43:32.182Z,101870.56
2023-05-02T11:46:00.476Z,101876.69
2023-05-02T11:48:27.856Z,101880.13
2023-05-02T11:50:56.643Z,101882.63
2023-05-02T11:53:25.511Z,101885.34
2023-05-02T11:55:56.496Z,101879.25
2023-05-02T11:58:25.537Z,101900.97
2023-05-02T12:00:53.071Z,101900.06
2023-05-02T12:03:31.577Z,101906.09
2023-05-02T12:06:12.644Z,101917.13
2023-05-02T12:08:40.449Z,101921.50
2023-05-02T12:11:07.163Z,101929.28
2023-05-02T12:13:33.851Z,101925.00
2023-05-02T12:16:00.959Z,101927.59
2023-05-02T12:18:27.716Z,101932.13
2023-05-02T12:20:55.900Z,101922.53
2023-05-02T12:23:24.266Z,101917.44
2023-05-02T12:25:50.715Z,101924.44
2023-05-02T12:28:20.734Z,101928.72
2023-05-02T12:30:49.645Z,101929.66
2023-05-02T12:33:17.291Z,101934.91
2023-05-02T12:35:46.033Z,101934.94
2023-05-02T12:38:17.521Z,101940.09
2023-05-02T12:40:52.310Z,101947.66
2023-05-02T12:43:19.989Z,101961.44
2023-05-02T12:45:48.426Z,101970.94
2023-05-02T12:48:19.858Z,101963.97
2023-05-02T12:50:46.612Z,101969.22
2023-05-02T12:53:13.043Z,101967.56
2023-05-02T12:55:39.672Z,101969.34
2023-05-02T12:58:08.308Z,101963.31
2023-05-02T13:00:37.671Z,101961.63
2023-05-02T13:03:04.450Z,101959.00
2023-05-02T13:05:30.989Z,101962.53
2023-05-02T13:07:58.394Z,101959.19
2023-05-02T13:10:26.118Z,101960.00
2023-05-02T13:12:52.780Z,101966.03
2023-05-02T13:15:19.708Z,101967.00
2023-05-02T13:17:46.267Z,101966.03
2023-05-02T13:20:13.132Z,101964.31
2023-05-02T13:22:39.537Z,101975.56
2023-05-02T13:25:06.865Z,101977.41
2023-05-02T13:27:34.221Z,101985.22
2023-05-02T13:30:08.432Z,101985.19
2023-05-02T13:32:35.641Z,101988.59
2023-05-02T13:35:04.080Z,101984.16
2023-05-02T13:37:30.514Z,101986.81
2023-05-02T13:39:57.178Z,101989.34
2023-05-02T13:42:23.551Z,101996.47
2023-05-02T13:44:50.038Z,101990.41
2023-05-02T13:47:16.423Z,101995.69
2023-05-02T13:49:42.713Z,102004.31
2023-05-02T13:52:09.155Z,102005.16
2023-05-02T13:54:35.463Z,101999.91
2023-05-02T13:57:02.537Z,102005.94
2023-05-02T13:59:28.795Z,102006.69
2023-05-02T14:01:55.165Z,102011.03
2023-05-02T14:04:22.281Z,102013.56
2023-05-02T14:06:49.986Z,102011.81
2023-05-02T14:09:16.927Z,102014.41
2023-05-02T14:11:44.277Z,102018.63
2023-05-02T14:14:12.418Z,102021.19
2023-05-02T14:16:39.699Z,102022.94
2023-05-02T14:19:06.191Z,102028.31
2023-05-02T14:21:32.492Z,102021.22
2023-05-02T14:23:58.792Z,102030.06
2023-05-02T14:26:25.112Z,102031.09
2023-05-02T14:28:51.509Z,102028.44
2023-05-02T14:31:17.801Z,102024.97
2023-05-02T14:33:44.255Z,102023.22
2023-05-02T14:36:10.672Z,102030.03
2023-05-02T14:38:37.180Z,102036.03
2023-05-02T14:41:03.475Z,102035.19
2023-05-02T14:43:29.761Z,102038.63
2023-05-02T14:45:57.369Z,102042.91
2023-05-02T14:48:23.857Z,102036.84
2023-05-02T14:50:50.157Z,102039.38
2023-05-02T14:53:16.716Z,102043.72
2023-05-02T14:55:43.191Z,102045.53
2023-05-02T14:58:10.201Z,102046.50
2023-05-02T15:00:38.229Z,102049.13
2023-05-02T15:03:07.690Z,102044.72
2023-05-02T15:05:36.084Z,102053.41
2023-05-02T15:08:02.522Z,102055.22
2023-05-02T15:10:29.053Z,102043.09
2023-05-02T15:12:55.364Z,102048.41
2023-05-02T15:15:24.933Z,102050.97
2023-05-02T15:17:52.007Z,102050.16
2023-05-02T15:20:18.729Z,102045.91
2023-05-02T15:22:45.196Z,102044.28
2023-05-02T15:25:11.868Z,102046.03
2023-05-02T15:27:38.266Z,102051.19
2023-05-02T15:30:06.575Z,102047.63
2023-05-02T15:32:33.406Z,102051.16
2023-05-02T15:34:59.810Z,102052.78
2023-05-02T15:37:26.185Z,102064.09
2023-05-02T15:39:52.575Z,102058.09
2023-05-02T15:42:18.961Z,102061.53
2023-05-02T15:44:45.298Z,102060.59
2023-05-02T15:47:11.729Z,102057.09
2023-05-02T15:49:38.656Z,102066.63
2023-05-02T15:52:04.968Z,102065.75
2023-05-02T15:54:32.045Z,102070.09
2023-05-02T15:56:58.483Z,102072.69
2023-05-02T15:59:24.850Z,102073.53
2023-05-02T16:01:51.266Z,102081.31
2023-05-02T16:04:17.650Z,102080.41
2023-05-02T16:06:44.249Z,102083.78
2023-05-02T16:09:11.125Z,102091.56
2023-05-02T16:11:37.400Z,102086.41
2023-05-02T16:14:03.889Z,102088.16
2023-05-02T16:16:30.270Z,102090.03
2023-05-02T16:18:56.593Z,102100.56
2023-05-02T16:21:22.966Z,102097.94
2023-05-02T16:23:49.289Z,102103.91
2023-05-02T16:26:15.557Z,102112.56
2023-05-02T16:28:41.901Z,102097.66
2023-05-02T16:31:11.247Z,102103.94
2023-05-02T16:33:38.939Z,102104.00
2023-05-02T16:36:06.360Z,102104.88
2023-05-02T16:38:32.836Z,102108.19
2023-05-02T16:41:03.198Z,102111.59
2023-05-02T16:43:29.521Z,102107.16
2023-05-02T16:46:03.671Z,102120.13
2023-05-02T16:48:30.235Z,102113.03
2023-05-02T16:50:57.177Z,102125.81
2023-05-02T16:53:24.072Z,102133.69
2023-05-02T16:55:50.487Z,102129.50
2023-05-02T16:58:16.820Z,102134.63
2023-05-02T17:00:43.240Z,102142.28
2023-05-02T17:03:09.809Z,102136.97
2023-05-02T17:05:36.321Z,102142.97
2023-05-02T17:08:02.783Z,102138.81
2023-05-02T17:10:29.337Z,102143.25
2023-05-02T17:12:57.182Z,102145.78
2023-05-02T17:15:23.538Z,102137.16
2023-05-02T17:17:50.029Z,102134.50
2023-05-02T17:20:17.417Z,102135.88
2023-05-02T17:22:43.736Z,102133.19
2023-05-02T17:25:12.991Z,102132.38
2023-05-02T17:27:40.858Z,102131.44
2023-05-02T17:30:08.090Z,102136.63
2023-05-02T17:32:35.280Z,102141.97
2023-05-02T17:35:01.619Z,102144.56
2023-05-02T17:37:27.885Z,102151.47
2023-05-02T17:39:54.391Z,102160.97
2023-05-02T17:42:20.723Z,102150.47
2023-05-02T17:44:48.268Z,102156.56
2023-05-02T17:47:14.597Z,102153.81
2023-05-02T17:49:40.854Z,102148.53
2023-05-02T17:52:07.147Z,102155.56
2023-05-02T17:54:33.483Z,102162.44
2023-05-02T17:56:59.923Z,102164.00
2023-05-02T17:59:27.171Z,102159.72
2023-05-02T18:01:53.473Z,102168.38
2023-05-02T18:04:20.525Z,102166.72
2023-05-02T18:06:46.906Z,102177.97
2023-05-02T18:09:13.279Z,102170.19
2023-05-02T18:11:39.803Z,102177.97
2023-05-02T18:14:06.404Z,102176.16
2023-05-02T18:16:34.283Z,102177.91
2023-05-02T18:19:01.213Z,102184.09
2023-05-02T18:21:28.112Z,102182.88
2023-05-02T18:23:56.552Z,102188.94
2023-05-02T18:26:22.937Z,102188.75
2023-05-02T18:28:53.013Z,102193.09
2023-05-02T18:31:20.075Z,102188.84
2023-05-02T18:33:49.465Z,102190.34
2023-05-02T18:36:20.614Z,102198.97
2023-05-02T18:38:46.972Z,102204.25
2023-05-02T18:41:13.324Z,102199.88
2023-05-02T18:43:39.656Z,102205.94
2023-05-02T18:46:07.735Z,102203.16
2023-05-02T18:48:35.225Z,102198.91
2023-05-02T18:51:02.508Z,102203.16
2023-05-02T18:53:28.820Z,102203.91
2023-05-02T18:55:55.398Z,102205.47
2023-05-02T18:58:22.485Z,102204.47
2023-05-02T19:00:48.996Z,102205.22
2023-05-02T19:03:15.739Z,102212.97
2023-05-02T19:05:42.988Z,102213.78
2023-05-02T19:08:09.444Z,102214.41
2023-05-02T19:10:35.854Z,102216.06
2023-05-02T19:13:02.480Z,102219.44
2023-05-02T19:15:28.868Z,102222.94
2023-05-02T19:17:56.744Z,102223.72
2023-05-02T19:20:23.209Z,102229.66
2023-05-02T19:22:49.923Z,102220.13
2023-05-02T19:25:17.828Z,102241.88
2023-05-02T19:27:45.056Z,102233.09
2023-05-02T19:30:14.537Z,102249.41
2023-05-02T19:32:41.969Z,102243.31
2023-05-02T19:35:09.010Z,102251.88
2023-05-02T19:37:35.612Z,102259.53
2023-05-02T19:40:01.920Z,102256.88
2023-05-02T19:42:28.736Z,102258.56
2023-05-02T19:44:55.098Z,102260.34
2023-05-02T19:47:22.254Z,102270.78
2023-05-02T19:49:50.865Z,102261.28
2023-05-02T19:52:17.235Z,102265.72
2023-05-02T19:54:43.583Z,102265.72
2023-05-02T19:57:09.892Z,102264.06
2023-05-02T19:59:36.265Z,102265.03
2023-05-02T20:02:02.794Z,102268.50
2023-05-02T20:04:29.114Z,102270.91
2023-05-02T20:06:55.517Z,102269.97
2023-05-02T20:09:21.926Z,102277.94
2023-05-02T20:11:48.279Z,102274.53
2023-05-02T20:14:15.504Z,102282.94
2023-05-02T20:16:41.944Z,102281.41
2023-05-02T20:19:08.382Z,102288.31
2023-05-02T20:21:34.854Z,102288.25
2023-05-02T20:24:01.263Z,102277.81
2023-05-02T20:26:31.111Z,102278.50
2023-05-02T20:28:58.705Z,102295.00
2023-05-02T20:31:26.054Z,102283.88
2023-05-02T20:33:53.420Z,102287.38
2023-05-02T20:36:19.742Z,102289.97
2023-05-02T20:38:47.726Z,102288.19
2023-05-02T20:41:14.877Z,102291.66
2023-05-02T20:43:44.435Z,102297.59
2023-05-02T20:46:12.152Z,102291.38
2023-05-02T20:48:38.646Z,102299.84
2023-05-02T20:51:04.998Z,102294.44
2023-05-02T20:53:31.279Z,102296.19
2023-05-02T20:55:57.562Z,102297.84
2023-05-02T20:58:23.923Z,102299.38
2023-05-02T21:00:52.374Z,102302.84
2023-05-02T21:03:21.852Z,102304.63
2023-05-02T21:05:52.301Z,102305.50
2023-05-02T21:08:18.833Z,102307.28
2023-05-02T21:10:45.577Z,102309.88
2023-05-02T21:13:12.105Z,102314.84
2023-05-02T21:15:39.780Z,102315.34
2023-05-02T21:18:07.080Z,102299.75
2023-05-02T21:20:33.885Z,102303.47
2023-05-02T21:23:00.201Z,102308.53
2023-05-02T21:25:26.637Z,102296.47
2023-05-02T21:27:53.333Z,102305.75
2023-05-02T21:30:19.788Z,102303.13
2023-05-02T21:32:46.230Z,102307.91
2023-05-02T21:35:12.528Z,102308.78
2023-05-02T21:37:38.838Z,102312.28
2023-05-02T21:40:06.018Z,102315.47
2023-05-02T21:42:32.368Z,102310.91
2023-05-02T21:44:58.638Z,102316.75
2023-05-02T21:47:24.957Z,102317.75
2023-05-02T21:49:53.121Z,102315.16
2023-05-02T21:52:19.448Z,102312.25
2023-05-02T21:54:49.748Z,102309.50
2023-05-02T21:57:16.006Z,102320.59
2023-05-02T21:59:42.779Z,102318.00
2023-05-02T22:02:09.639Z,102316.09
2023-05-02T22:04:36.404Z,102317.91
2023-05-02T22:07:02.756Z,102314.25
2023-05-02T22:09:32.083Z,102322.69
2023-05-02T22:11:59.590Z,102329.44
2023-05-02T22:14:33.702Z,102321.56
2023-05-02T22:17:08.095Z,102327.63
2023-05-02T22:19:34.411Z,102324.81
2023-05-02T22:22:01.528Z,102324.78
2023-05-02T22:24:28.670Z,102325.47
2023-05-02T22:26:56.102Z,102321.97
2023-05-02T22:29:22.816Z,102327.03
2023-05-02T22:31:49.942Z,102327.84
2023-05-02T22:34:16.330Z,102330.41
2023-05-02T22:36:42.654Z,102342.38
2023-05-02T22:39:12.782Z,102337.13
2023-05-02T22:41:39.123Z,102346.78
2023-05-02T22:44:05.540Z,102344.88
2023-05-02T22:46:31.950Z,102345.66
2023-05-02T22:48:58.683Z,102355.06
2023-05-02T22:51:28.119Z,102347.34
2023-05-02T22:53:55.370Z,102348.13
2023-05-02T22:56:22.191Z,102349.84
2023-05-02T22:58:49.791Z,102353.13
2023-05-02T23:01:16.352Z,102359.84
2023-05-02T23:03:43.201Z,102358.22
2023-05-02T23:06:09.695Z,102355.47
2023-05-02T23:08:36.005Z,102358.91
2023-05-02T23:11:02.537Z,102358.75
2023-05-02T23:13:28.871Z,102356.66
2023-05-02T23:15:55.677Z,102365.19
2023-05-02T23:18:22.862Z,102362.59
2023-05-02T23:20:49.204Z,102357.25
2023-05-02T23:23:15.550Z,102360.47
2023-05-02T23:25:41.885Z,102362.13
2023-05-02T23:28:08.269Z,102362.03
2023-05-02T23:30:34.660Z,102365.53
2023-05-02T23:33:01.239Z,102360.38
2023-05-02T23:35:27.560Z,102366.50
2023-05-02T23:37:54.062Z,102373.28
2023-05-02T23:40:20.560Z,102370.50
2023-05-02T23:42:46.955Z,102376.34
2023-05-02T23:45:13.321Z,102376.28
2023-05-02T23:47:39.735Z,102379.69
2023-05-02T23:50:06.742Z,102374.41
2023-05-02T23:52:33.672Z,102386.50
2023-05-02T23:54:59.992Z,102388.91
2023-05-02T23:57:28.800Z,102387.00
2023-05-02T23:59:55.808Z,102394.53
